Time;durP1;ratioP1;P1;durP2;ratioP2;P2;SDS_P1;SDS_P2;PMS_P1;PMS_P2;Temp;Humidity;BMP_temperature;BMP_pressure;BME280_temperature;BME280_humidity;BME280_pressure;Samples;Min_cycle;Max_cycle;Signal;HPM_P1;HPM_P2
2021/07/01 00:02:01;;;;;;;15.25;6.70;;;;;;;14.34;84.26;101373.59;5071877;28;20040;-50
2021/07/01 00:04:29;;;;;;;11.15;5.13;;;;;;;14.40;84.29;101371.66;5071425;28;20048;-52
2021/07/01 00:06:57;;;;;;;18.38;6.68;;;;;;;14.42;84.01;101370.28;5071477;28;20490;-52
2021/07/01 00:09:25;;;;;;;13.68;7.22;;;;;;;14.39;83.97;101370.03;5071741;28;20072;-49
2021/07/01 00:11:55;;;;;;;13.95;6.38;;;;;;;14.35;84.11;101360.72;5072004;28;20052;-49
2021/07/01 00:14:24;;;;;;;15.25;7.30;;;;;;;14.29;84.34;101370.88;5071829;28;20118;-52
2021/07/01 00:16:53;;;;;;;16.23;6.75;;;;;;;14.23;84.29;101371.97;5071608;28;20044;-52
2021/07/01 00:19:22;;;;;;;16.17;7.25;;;;;;;14.21;84.45;101365.97;5071581;28;20049;-50
2021/07/01 00:21:50;;;;;;;15.80;6.45;;;;;;;14.21;84.65;101360.47;5071252;28;20063;-52
2021/07/01 00:24:17;;;;;;;16.90;7.00;;;;;;;14.22;84.75;101364.88;5071728;28;20060;-48
2021/07/01 00:26:45;;;;;;;17.85;7.03;;;;;;;14.22;84.69;101368.44;5071527;28;20036;-50
2021/07/01 00:29:13;;;;;;;20.38;7.75;;;;;;;14.24;84.27;101373.66;5071785;28;20448;-51
2021/07/01 00:31:40;;;;;;;18.83;7.30;;;;;;;14.22;84.41;101370.34;5072784;28;20045;-48
2021/07/01 00:34:08;;;;;;;18.13;7.68;;;;;;;14.19;84.62;101365.41;5075460;28;20585;-49
2021/07/01 00:36:36;;;;;;;17.65;7.25;;;;;;;14.19;84.76;101379.13;5074826;28;20082;-50
2021/07/01 00:39:04;;;;;;;15.23;7.03;;;;;;;14.19;84.49;101365.41;5075385;28;20068;-48
2021/07/01 00:41:33;;;;;;;14.07;6.88;;;;;;;14.20;84.56;101367.06;5074251;28;20098;-50
2021/07/01 00:44:02;;;;;;;16.38;6.63;;;;;;;14.21;84.68;101368.69;5074976;28;20040;-49
2021/07/01 00:46:31;;;;;;;15.57;6.90;;;;;;;14.19;84.54;101373.63;5074836;28;20110;-50
2021/07/01 00:48:59;;;;;;;16.33;5.95;;;;;;;14.15;84.46;101373.38;5073838;28;20048;-49
2021/07/01 00:51:27;;;;;;;15.15;6.25;;;;;;;14.11;84.09;101374.22;5074625;28;20521;-49
2021/07/01 00:53:55;;;;;;;11.93;5.60;;;;;;;14.06;83.90;101378.59;5074160;28;20048;-51
2021/07/01 00:56:24;;;;;;;13.70;5.60;;;;;;;14.02;84.20;101377.53;5075192;28;20052;-51
2021/07/01 00:58:54;;;;;;;13.93;5.65;;;;;;;14.02;84.07;101382.16;5074268;28;20048;-53
2021/07/01 01:01:23;;;;;;;14.63;5.90;;;;;;;14.02;84.06;101377.53;5073505;28;20601;-49
2021/07/01 01:03:52;;;;;;;18.20;5.70;;;;;;;14.06;84.22;101375.06;5074899;28;20456;-50
2021/07/01 01:06:20;;;;;;;16.63;6.20;;;;;;;14.09;83.94;101377.22;5074263;28;20079;-50
2021/07/01 01:08:49;;;;;;;12.50;5.68;;;;;;;14.10;83.73;101378.88;5073624;28;20056;-49
2021/07/01 01:11:17;;;;;;;15.68;6.20;;;;;;;14.07;83.62;101374.78;5074522;28;20053;-53
2021/07/01 01:13:58;;;;;;;15.70;6.65;;;;;;;14.07;83.34;101374.78;5073162;28;20449;-50
2021/07/01 01:16:35;;;;;;;15.55;5.97;;;;;;;14.06;83.67;101372.31;5074566;28;20791;-48
2021/07/01 01:19:07;;;;;;;16.02;6.45;;;;;;;14.05;83.76;101366.00;5073340;28;20032;-49
2021/07/01 01:21:36;;;;;;;15.52;6.70;;;;;;;14.09;84.13;101370.94;5072889;28;20507;-50
2021/07/01 01:24:07;;;;;;;17.75;6.88;;;;;;;14.10;83.90;101358.88;5073288;28;20045;-50
2021/07/01 01:26:37;;;;;;;20.70;7.82;;;;;;;14.09;83.95;101370.94;5074369;28;20056;-51
2021/07/01 01:29:05;;;;;;;17.00;7.32;;;;;;;14.09;84.03;101370.94;5073491;28;20051;-50
2021/07/01 01:31:36;;;;;;;17.05;6.97;;;;;;;14.12;84.11;101370.38;5074228;28;20098;-51
2021/07/01 01:34:05;;;;;;;17.75;8.23;;;;;;;14.11;83.85;101372.28;5073045;28;20055;-51
2021/07/01 01:36:32;;;;;;;19.85;7.38;;;;;;;14.11;83.79;101375.03;5072856;28;20041;-52
2021/07/01 01:39:02;;;;;;;21.35;7.82;;;;;;;14.09;83.82;101370.94;5073161;28;20044;-51
2021/07/01 01:41:32;;;;;;;21.52;8.27;;;;;;;14.05;83.46;101368.75;5074381;28;20063;-49
2021/07/01 01:44:00;;;;;;;18.42;8.02;;;;;;;14.04;83.78;101369.84;5072692;28;20047;-49
2021/07/01 01:46:36;;;;;;;20.70;8.90;;;;;;;14.05;83.82;101371.50;5072675;28;20079;-48
2021/07/01 01:49:06;;;;;;;17.50;7.72;;;;;;;14.06;83.93;101370.38;5073311;28;20050;-50
2021/07/01 01:51:36;;;;;;;23.55;8.27;;;;;;;14.05;83.59;101374.22;5073731;28;20073;-50
2021/07/01 01:54:05;;;;;;;20.50;7.82;;;;;;;14.03;83.85;101373.69;5073769;28;20124;-48
2021/07/01 01:56:45;;;;;;;17.98;7.45;;;;;;;13.96;83.47;101369.59;5074082;28;20048;-50
2021/07/01 01:59:36;;;;;;;19.88;7.03;;;;;;;13.93;83.89;101372.91;5073798;28;20040;-51
2021/07/01 02:02:22;;;;;;;18.48;7.32;;;;;;;13.94;84.13;101367.13;5073790;28;20082;-51
2021/07/01 02:05:12;;;;;;;20.80;7.78;;;;;;;13.97;83.63;101363.81;5073287;28;20376;-50
2021/07/01 02:07:41;;;;;;;21.83;8.45;;;;;;;13.97;83.28;101369.31;5072339;28;20047;-49
2021/07/01 02:10:14;;;;;;;18.00;7.47;;;;;;;13.97;83.30;101374.78;5071049;28;20433;-50
2021/07/01 02:12:43;;;;;;;19.90;7.35;;;;;;;13.96;83.31;101372.34;5088878;28;20083;-50
2021/07/01 02:15:14;;;;;;;20.45;7.63;;;;;;;13.99;83.29;101372.59;5072115;28;20036;-50
2021/07/01 02:17:50;;;;;;;21.30;7.80;;;;;;;13.97;83.21;101369.31;5072096;28;20372;-50
2021/07/01 02:20:21;;;;;;;23.77;8.00;;;;;;;13.96;83.16;101373.16;5073139;28;20120;-51
2021/07/01 02:22:50;;;;;;;20.80;7.45;;;;;;;13.94;83.49;101369.06;5072336;28;20044;-50
2021/07/01 02:25:22;;;;;;;19.45;7.40;;;;;;;13.94;83.60;101369.06;5072015;28;20048;-49
2021/07/01 02:28:13;;;;;;;18.45;6.63;;;;;;;13.95;83.49;101366.03;5011121;28;20053;-50
2021/07/01 02:30:47;;;;;;;18.92;6.25;;;;;;;13.96;83.48;101362.19;4994722;28;20058;-53
2021/07/01 02:33:16;;;;;;;24.42;8.48;;;;;;;13.95;83.36;101360.56;5010760;28;20050;-54
2021/07/01 02:35:44;;;;;;;18.75;6.03;;;;;;;13.96;83.42;101362.19;5010855;28;20045;-51
2021/07/01 02:38:30;;;;;;;21.27;6.53;;;;;;;14.00;83.25;101366.03;5011169;28;20176;-51
2021/07/01 02:41:09;;;;;;;16.92;7.25;;;;;;;14.04;83.26;101363.53;4994579;28;20057;-53
2021/07/01 02:43:41;;;;;;;15.68;6.65;;;;;;;14.02;82.70;101366.56;5011068;28;20048;-50
2021/07/01 02:46:27;;;;;;;;;;;;;;;14.02;82.76;101365.72;5010650;28;20045;-53
2021/07/01 02:48:56;;;;;;;20.17;6.47;;;;;;;13.98;82.48;101370.16;5010943;28;20075;-49
2021/07/01 02:51:24;;;;;;;19.45;7.05;;;;;;;13.92;82.42;101373.97;5010540;28;20049;-50
2021/07/01 02:53:53;;;;;;;13.77;6.05;;;;;;;13.85;82.42;101371.53;5010310;28;20045;-51
2021/07/01 02:56:25;;;;;;;16.17;6.45;;;;;;;13.80;81.95;101385.22;5010693;28;20058;-50
2021/07/01 02:58:54;;;;;;;15.50;6.78;;;;;;;13.76;82.25;101379.50;4994336;28;20497;-50
2021/07/01 03:01:40;;;;;;;;;;;;;;;13.75;81.89;101377.03;5010452;28;20042;-48
2021/07/01 03:04:24;;;;;;;13.57;6.15;;;;;;;13.74;81.78;101380.88;5020632;28;19972;-50
2021/07/01 03:06:52;;;;;;;16.17;6.47;;;;;;;13.71;82.00;101376.75;5092261;28;20513;-49
2021/07/01 03:09:20;;;;;;;19.73;5.70;;;;;;;13.73;82.07;101373.72;5074283;28;20116;-47
2021/07/01 03:11:48;;;;;;;17.67;6.22;;;;;;;13.75;82.07;101379.75;5092611;28;20048;-48
2021/07/01 03:14:16;;;;;;;16.50;5.85;;;;;;;13.76;82.04;101375.94;5074454;28;20569;-47
2021/07/01 03:16:44;;;;;;;15.63;5.70;;;;;;;13.77;81.77;101372.09;5091829;28;20514;-48
2021/07/01 03:19:12;;;;;;;13.30;6.20;;;;;;;13.77;81.94;101374.84;5092507;28;20036;-48
2021/07/01 03:22:03;;;;;;;14.32;6.18;;;;;;;13.74;81.79;101373.47;4990501;28;20042;-50
2021/07/01 03:24:32;;;;;;;14.50;6.43;;;;;;;13.73;82.02;101373.72;4974572;28;20042;-50
2021/07/01 03:27:04;;;;;;;11.73;5.53;;;;;;;13.73;82.07;101373.72;4990353;28;20038;-53
2021/07/01 03:29:32;;;;;;;13.07;5.57;;;;;;;13.74;82.01;101375.41;4990512;28;20420;-51
2021/07/01 03:32:00;;;;;;;16.17;6.25;;;;;;;13.74;81.70;101373.47;4974010;28;20094;-50
2021/07/01 03:34:28;;;;;;;13.27;6.10;;;;;;;13.74;81.42;101362.50;4990544;28;20361;-51
2021/07/01 03:36:56;;;;;;;19.63;6.45;;;;;;;13.72;81.65;101366.63;4990528;28;20046;-50
2021/07/01 03:39:42;;;;;;;17.70;6.60;;;;;;;13.67;81.53;101359.22;4990615;28;20054;-53
2021/07/01 03:42:23;;;;;;;15.40;6.43;;;;;;;13.62;81.83;101368.28;4990274;28;20047;-49
2021/07/01 03:44:52;;;;;;;15.43;6.15;;;;;;;13.61;82.27;101374.84;4973772;28;20042;-49
2021/07/01 03:47:23;;;;;;;19.00;6.50;;;;;;;13.63;82.17;101374.56;4974065;28;20093;-50
2021/07/01 03:49:51;;;;;;;15.27;6.88;;;;;;;13.61;82.13;101369.38;4990490;28;20109;-52
2021/07/01 03:52:37;;;;;;;17.10;6.40;;;;;;;13.61;82.11;101372.13;4990154;28;20053;-49
2021/07/01 03:55:06;;;;;;;13.15;5.82;;;;;;;13.61;82.71;101377.59;4974296;28;20050;-49
2021/07/01 03:57:33;;;;;;;16.65;6.93;;;;;;;13.63;82.20;101372.63;4990280;28;20058;-51
2021/07/01 04:00:04;;;;;;;15.32;6.20;;;;;;;13.67;82.88;101377.59;5061210;28;20476;-53
2021/07/01 04:02:50;;;;;;;16.02;5.97;;;;;;;13.72;82.76;101374.84;5073686;28;20071;-52
2021/07/01 04:05:22;;;;;;;16.85;6.75;;;;;;;13.72;83.00;101372.09;5074023;28;20044;-54
2021/07/01 04:07:52;;;;;;;13.80;6.50;;;;;;;13.71;83.53;101373.19;5077288;28;20127;-54
2021/07/01 04:10:40;;;;;;;18.35;6.68;;;;;;;13.71;83.17;101376.75;5077971;28;20048;-53
2021/07/01 04:13:13;;;;;;;17.17;7.68;;;;;;;13.72;83.30;101381.13;5095517;28;20491;-51
2021/07/01 04:15:43;;;;;;;17.63;6.93;;;;;;;13.71;83.36;101384.97;5095604;28;20458;-52
2021/07/01 04:18:23;;;;;;;15.70;6.40;;;;;;;13.72;83.41;101383.88;5095487;28;20039;-49
2021/07/01 04:21:29;;;;;;;20.38;7.25;;;;;;;13.78;83.75;101387.41;5033266;28;20045;-45
2021/07/01 04:24:15;;;;;;;15.60;7.30;;;;;;;13.79;83.42;101389.06;5033349;28;20049;-52
2021/07/01 04:26:53;;;;;;;15.48;7.28;;;;;;;13.78;83.50;101392.91;5016560;28;20049;-49
2021/07/01 04:29:24;;;;;;;19.83;8.27;;;;;;;13.80;83.98;101390.69;5032773;28;20508;-45
2021/07/01 04:31:54;;;;;;;17.23;8.57;;;;;;;13.81;83.72;101392.38;5032707;28;20046;-47
2021/07/01 04:34:23;;;;;;;23.73;9.35;;;;;;;13.83;83.67;101392.91;5018031;28;20068;-50
2021/07/01 04:36:51;;;;;;;20.98;9.25;;;;;;;13.85;83.23;101391.53;5032703;28;20137;-51
2021/07/01 04:39:20;;;;;;;23.60;9.13;;;;;;;13.84;83.57;101400.84;5032302;28;20073;-48
2021/07/01 04:42:10;;;;;;;14.88;5.75;;;;;;;13.89;83.44;101397.28;5031741;28;20045;-46
2021/07/01 04:44:38;;;;;;;21.25;9.98;;;;;;;13.92;83.17;101402.19;5031970;28;20084;-48
2021/07/01 04:47:07;;;;;;;16.88;9.23;;;;;;;13.93;83.11;101401.13;5012996;28;20057;-51
2021/07/01 04:49:35;;;;;;;16.92;8.18;;;;;;;13.92;83.04;101401.38;5032243;28;20061;-50
2021/07/01 04:52:35;;;;;;;18.40;9.50;;;;;;;13.88;83.01;101403.00;4977944;28;20058;-49
2021/07/01 04:55:21;;;;;;;18.35;8.77;;;;;;;13.89;82.86;101405.50;4993081;28;20066;-50
2021/07/01 04:58:04;;;;;;;20.08;9.18;;;;;;;13.86;82.89;101400.56;4992743;28;20093;-50
2021/07/01 05:00:35;;;;;;;20.13;8.65;;;;;;;13.88;82.89;101401.13;4993172;28;20046;-51
2021/07/01 05:03:21;;;;;;;15.02;7.82;;;;;;;13.85;82.91;101404.38;4984754;28;20050;-49
2021/07/01 05:05:49;;;;;;;18.30;8.85;;;;;;;13.87;82.82;101396.72;4992661;28;20054;-51
2021/07/01 05:08:19;;;;;;;17.63;7.53;;;;;;;13.88;82.75;101401.13;4992968;28;20054;-50
2021/07/01 05:10:49;;;;;;;20.75;8.43;;;;;;;13.89;82.66;101400.00;4993007;28;20162;-52
2021/07/01 05:13:19;;;;;;;17.73;8.65;;;;;;;13.84;82.78;101394.53;4992344;28;20054;-50
2021/07/01 05:15:48;;;;;;;14.55;7.05;;;;;;;13.88;82.75;101403.88;4976404;28;20042;-50
2021/07/01 05:18:17;;;;;;;16.38;7.15;;;;;;;13.91;82.93;101392.34;4992273;28;20134;-49
2021/07/01 05:21:04;;;;;;;19.45;8.73;;;;;;;13.95;82.60;101403.56;4992623;28;20058;-50
2021/07/01 05:23:52;;;;;;;18.10;8.10;;;;;;;13.92;82.71;101398.63;4992040;28;20046;-48
2021/07/01 05:26:38;;;;;;;21.45;8.63;;;;;;;13.89;82.53;101397.28;4992149;28;20050;-49
2021/07/01 05:29:24;;;;;;;;;;;;;;;13.91;82.65;101397.81;5087663;28;20064;-48
2021/07/01 05:32:34;;;;;;;17.67;8.45;;;;;;;13.93;82.18;101394.81;5094074;28;19920;-50
2021/07/01 05:35:10;;;;;;;26.58;8.95;;;;;;;13.90;82.24;101385.22;5096681;28;20048;-49
2021/07/01 05:38:04;;;;;;;24.60;9.73;;;;;;;13.90;82.36;101392.59;5087028;28;20036;-48
2021/07/01 05:40:33;;;;;;;25.63;8.57;;;;;;;13.89;82.42;101393.72;5087429;28;20123;-48
2021/07/01 05:43:01;;;;;;;19.00;8.48;;;;;;;13.88;82.52;101398.38;5093609;28;20119;-49
2021/07/01 05:45:31;;;;;;;16.98;7.82;;;;;;;13.90;82.14;101390.69;5074987;28;20134;-48
2021/07/01 05:47:59;;;;;;;21.00;8.45;;;;;;;13.85;82.09;101393.44;5093627;28;20043;-54
2021/07/01 05:50:27;;;;;;;20.48;7.70;;;;;;;13.84;82.11;101392.63;5074979;28;20052;-49
2021/07/01 05:53:00;;;;;;;19.98;8.40;;;;;;;13.84;82.27;101389.88;5093436;28;20040;-49
2021/07/01 05:55:27;;;;;;;18.58;8.57;;;;;;;13.87;82.27;101395.91;5085009;28;20055;-48
2021/07/01 05:57:55;;;;;;;19.77;7.70;;;;;;;13.84;81.96;101391.81;5093456;28;20043;-49
2021/07/01 06:00:23;;;;;;;19.50;7.68;;;;;;;13.90;82.19;101390.69;5093404;28;20051;-49
2021/07/01 06:02:50;;;;;;;17.08;7.72;;;;;;;13.91;82.05;101386.06;5093282;28;20052;-51
2021/07/01 06:05:18;;;;;;;20.73;7.93;;;;;;;13.91;82.30;101383.31;5093305;28;20440;-50
2021/07/01 06:08:05;;;;;;;17.67;8.43;;;;;;;13.88;82.28;101392.06;5093203;28;20054;-50
2021/07/01 06:10:34;;;;;;;20.83;7.68;;;;;;;13.93;82.07;101394.81;5074502;28;20040;-49
2021/07/01 06:13:05;;;;;;;16.58;8.27;;;;;;;14.01;81.80;101395.06;5075357;28;20388;-49
2021/07/01 06:15:36;;;;;;;20.40;8.25;;;;;;;13.94;81.68;101394.53;5092819;28;20437;-49
2021/07/01 06:18:05;;;;;;;14.68;6.55;;;;;;;13.93;81.70;101401.13;5093321;28;20052;-50
2021/07/01 06:20:33;;;;;;;17.65;6.93;;;;;;;13.98;82.00;101400.28;5092915;28;20040;-53
2021/07/01 06:23:01;;;;;;;15.18;6.97;;;;;;;14.01;81.70;101396.97;5075063;28;20036;-49
2021/07/01 06:25:28;;;;;;;17.25;6.55;;;;;;;13.99;81.37;101400.00;5092337;28;20093;-50
2021/07/01 06:27:56;;;;;;;16.55;7.20;;;;;;;13.99;81.37;101401.91;5092993;28;20105;-51
2021/07/01 06:30:24;;;;;;;18.20;7.03;;;;;;;13.96;81.68;101397.81;5091910;28;20047;-49
2021/07/01 06:32:55;;;;;;;16.20;7.03;;;;;;;13.94;81.45;101397.25;5058852;28;20032;-48
2021/07/01 06:35:25;;;;;;;17.35;7.15;;;;;;;13.88;81.50;101403.88;5092674;28;20044;-47
2021/07/01 06:38:00;;;;;;;17.30;6.60;;;;;;;13.91;81.30;101395.09;5074621;28;20056;-50
2021/07/01 06:40:47;;;;;;;15.48;5.90;;;;;;;13.91;81.59;101397.81;5092408;28;20035;-51
2021/07/01 06:43:33;;;;;;;16.63;6.45;;;;;;;13.88;81.25;101401.13;5092521;28;20044;-50
2021/07/01 06:46:25;;;;;;;14.88;6.20;;;;;;;13.89;81.29;101399.19;5010243;28;20056;-51
2021/07/01 06:49:12;;;;;;;14.75;6.10;;;;;;;13.86;81.18;101395.09;5009837;28;20050;-50
2021/07/01 06:51:59;;;;;;;15.93;6.80;;;;;;;13.92;81.66;101402.19;5010093;28;20144;-50
2021/07/01 06:54:46;;;;;;;14.25;6.30;;;;;;;13.87;81.19;101395.91;5009804;28;20042;-51
2021/07/01 06:57:35;;;;;;;15.00;5.32;;;;;;;13.90;81.71;101398.91;5009767;28;20539;-48
2021/07/01 07:00:05;;;;;;;16.50;6.45;;;;;;;13.90;81.58;101404.38;5010395;28;20046;-51
2021/07/01 07:02:34;;;;;;;16.45;6.35;;;;;;;13.97;81.40;101407.66;5009767;28;20461;-50
2021/07/01 07:05:04;;;;;;;17.70;7.53;;;;;;;13.93;81.02;101412.06;5009901;28;20053;-49
2021/07/01 07:07:33;;;;;;;14.50;6.22;;;;;;;13.91;81.70;101407.97;5009894;28;20116;-49
2021/07/01 07:10:04;;;;;;;19.58;7.63;;;;;;;13.95;81.54;101414.50;5009934;28;20058;-54
2021/07/01 07:12:38;;;;;;;21.30;7.38;;;;;;;13.97;81.50;101413.13;5010369;28;20072;-57
2021/07/01 07:15:12;;;;;;;25.95;8.30;;;;;;;13.98;81.45;101412.06;5009335;28;20042;-48
2021/07/01 07:17:41;;;;;;;18.33;8.30;;;;;;;14.01;80.92;101411.50;5010079;28;20424;-51
2021/07/01 07:20:10;;;;;;;21.73;8.02;;;;;;;14.01;81.06;101413.41;5010063;28;20078;-48
2021/07/01 07:22:41;;;;;;;21.23;7.90;;;;;;;13.96;81.32;101417.00;5001097;28;20512;-50
2021/07/01 07:25:11;;;;;;;17.02;7.47;;;;;;;13.98;81.41;101413.97;5090193;28;20043;-50
2021/07/01 07:27:43;;;;;;;18.67;8.15;;;;;;;14.00;81.27;101420.81;5091868;28;20036;-50
2021/07/01 07:30:11;;;;;;;17.42;6.93;;;;;;;14.02;81.00;101426.00;5073509;28;20040;-50
2021/07/01 07:32:39;;;;;;;17.85;7.00;;;;;;;13.97;80.86;101418.63;5091401;28;20048;-49
2021/07/01 07:35:12;;;;;;;16.58;6.00;;;;;;;13.95;81.14;101420.84;5074335;28;20098;-49
2021/07/01 07:37:39;;;;;;;18.15;7.38;;;;;;;14.03;81.27;101423.00;5053422;28;20057;-51
2021/07/01 07:40:08;;;;;;;16.25;6.70;;;;;;;14.05;80.80;101420.00;5053023;28;20479;-50
2021/07/01 07:42:36;;;;;;;14.98;6.18;;;;;;;14.04;81.02;101424.63;5071878;28;20078;-50
2021/07/01 07:45:05;;;;;;;15.60;6.30;;;;;;;14.06;81.15;101416.97;5071092;28;20492;-51
2021/07/01 07:47:32;;;;;;;17.45;7.28;;;;;;;14.06;80.69;101427.94;5080628;28;20041;-51
2021/07/01 07:50:00;;;;;;;16.90;6.63;;;;;;;14.03;80.88;101412.03;5071551;28;20064;-50
2021/07/01 07:52:28;;;;;;;17.42;7.00;;;;;;;14.04;81.35;101424.63;5078868;28;20073;-50
2021/07/01 07:54:59;;;;;;;17.23;7.35;;;;;;;14.08;81.03;101413.97;5052731;28;20040;-51
2021/07/01 07:57:28;;;;;;;17.73;6.88;;;;;;;14.07;81.07;101423.28;5054296;28;20078;-54
2021/07/01 07:59:58;;;;;;;15.32;6.70;;;;;;;14.10;81.26;101430.94;5053230;28;20586;-55
2021/07/01 08:03:14;;;;;;;17.02;6.70;;;;;;;14.09;81.05;101428.47;5070986;28;20499;-54
2021/07/01 08:05:42;;;;;;;17.08;5.88;;;;;;;14.11;81.07;101424.34;5007417;28;20054;-50
2021/07/01 08:08:15;;;;;;;13.10;6.43;;;;;;;14.15;81.01;101428.19;4993497;28;20578;-50
2021/07/01 08:10:44;;;;;;;15.05;6.03;;;;;;;14.09;80.90;101426.53;5012195;28;20046;-52
2021/07/01 08:13:12;;;;;;;13.88;6.25;;;;;;;14.06;81.52;101427.13;5009322;28;20046;-51
2021/07/01 08:15:41;;;;;;;16.95;6.53;;;;;;;14.02;81.72;101421.38;4992499;28;20097;-49
2021/07/01 08:18:09;;;;;;;15.90;7.13;;;;;;;14.08;81.70;101419.44;5009134;28;20064;-50
2021/07/01 08:20:36;;;;;;;14.55;6.30;;;;;;;14.10;81.52;101428.22;4992670;28;20065;-51
2021/07/01 08:23:04;;;;;;;16.08;6.53;;;;;;;14.19;80.86;101422.97;5009372;28;20045;-50
2021/07/01 08:25:32;;;;;;;16.95;6.43;;;;;;;14.09;81.22;101426.53;4992706;28;20444;-49
2021/07/01 08:28:00;;;;;;;17.75;6.10;;;;;;;14.03;81.37;101431.22;5009282;28;20046;-52
2021/07/01 08:30:28;;;;;;;14.05;6.05;;;;;;;14.02;82.00;101426.84;5009073;28;20480;-49
2021/07/01 08:32:58;;;;;;;13.50;5.18;;;;;;;14.04;81.91;101432.84;5009001;28;20067;-49
2021/07/01 08:35:27;;;;;;;18.10;6.88;;;;;;;14.07;81.53;101431.50;5008550;28;20152;-50
2021/07/01 08:38:02;;;;;;;17.17;6.93;;;;;;;14.10;81.79;101438.34;4992959;28;20528;-49
2021/07/01 08:40:35;;;;;;;19.08;7.22;;;;;;;14.12;82.38;101441.63;5008892;28;20137;-49
2021/07/01 08:43:05;;;;;;;14.68;6.88;;;;;;;14.12;82.69;101444.34;5062678;28;20032;-50
2021/07/01 08:46:11;;;;;;;23.85;9.00;;;;;;;14.14;83.08;101445.75;5070448;28;20060;-49
2021/07/01 08:49:01;;;;;;;17.52;7.25;;;;;;;14.12;83.14;101447.94;5083937;28;20048;-48
2021/07/01 08:51:43;;;;;;;14.82;6.85;;;;;;;14.12;83.12;101439.72;5076903;28;20052;-50
2021/07/01 08:54:32;;;;;;;12.85;5.53;;;;;;;14.16;83.23;101442.72;5072309;28;20036;-47
2021/07/01 08:57:05;;;;;;;15.75;6.45;;;;;;;14.16;83.19;101449.00;5073938;28;20056;-48
2021/07/01 08:59:57;;;;;;;11.10;5.55;;;;;;;14.16;83.75;101450.94;5074577;28;20037;-49
2021/07/01 09:02:34;;;;;;;14.90;6.60;;;;;;;14.11;83.58;101446.28;5056501;28;20075;-49
2021/07/01 09:05:17;;;;;;;14.95;6.50;;;;;;;14.10;83.92;101450.13;5072636;28;20043;-49
2021/07/01 09:07:54;;;;;;;12.73;6.20;;;;;;;14.08;83.94;101446.84;5074150;28;20048;-51
2021/07/01 09:10:22;;;;;;;10.50;5.18;;;;;;;14.09;84.10;101444.91;5056688;28;20055;-50
2021/07/01 09:12:57;;;;;;;12.32;5.75;;;;;;;14.15;84.01;101446.56;5073848;28;20048;-51
2021/07/01 09:15:27;;;;;;;14.20;6.77;;;;;;;14.09;83.45;101448.47;5074103;28;20032;-51
2021/07/01 09:17:56;;;;;;;15.32;6.10;;;;;;;14.02;84.31;101448.78;5073669;28;20052;-52
2021/07/01 09:20:34;;;;;;;15.70;6.22;;;;;;;14.02;84.42;101447.94;5073853;28;20032;-53
2021/07/01 09:23:03;;;;;;;14.65;6.53;;;;;;;14.05;84.60;101453.69;5073867;28;20116;-49
2021/07/01 09:25:31;;;;;;;13.68;6.20;;;;;;;14.03;84.35;101452.34;5073887;28;20106;-49
2021/07/01 09:27:59;;;;;;;16.65;6.30;;;;;;;14.03;84.55;101457.81;5073748;28;20051;-49
2021/07/01 09:30:30;;;;;;;22.25;7.00;;;;;;;14.02;84.74;101459.75;5074077;28;20372;-48
2021/07/01 09:33:01;;;;;;;21.00;7.20;;;;;;;13.98;84.67;101455.91;5073594;28;20489;-49
2021/07/01 09:35:31;;;;;;;13.27;7.05;;;;;;;13.93;84.94;101455.91;5073566;28;20070;-49
2021/07/01 09:38:19;;;;;;;21.27;7.40;;;;;;;13.92;84.98;101453.44;5073397;28;20068;-48
2021/07/01 09:40:46;;;;;;;14.57;6.57;;;;;;;13.94;85.43;101457.53;5055825;28;20503;-50
2021/07/01 09:43:17;;;;;;;16.73;6.53;;;;;;;13.97;85.38;101456.16;5056367;28;20041;-51
2021/07/01 09:45:46;;;;;;;11.88;4.82;;;;;;;14.09;85.50;101453.13;5055589;28;20064;-52
2021/07/01 09:48:15;;;;;;;24.90;6.60;;;;;;;14.25;85.38;101463.81;5055341;28;20045;-53
2021/07/01 09:50:45;;;;;;;16.92;6.53;;;;;;;14.38;84.38;101461.56;5055905;28;20515;-52
2021/07/01 09:53:31;;;;;;;33.38;7.75;;;;;;;14.41;83.94;101467.34;5055657;28;20391;-52
2021/07/01 09:56:04;;;;;;;15.90;6.05;;;;;;;14.42;83.78;101471.72;5073400;28;20098;-51
2021/07/01 09:58:33;;;;;;;21.23;5.90;;;;;;;14.40;83.84;101476.66;5073791;28;20456;-51
2021/07/01 10:01:01;;;;;;;77.82;14.85;;;;;;;14.53;83.13;101474.41;5055460;28;20098;-53
2021/07/01 10:03:29;;;;;;;42.15;8.15;;;;;;;14.39;83.57;101480.50;5055204;28;20491;-50
2021/07/01 10:05:56;;;;;;;17.60;6.35;;;;;;;14.32;83.70;101479.16;5073178;28;20045;-50
2021/07/01 10:08:40;;;;;;;14.38;6.80;;;;;;;14.27;83.89;101479.97;5038918;28;20048;-49
2021/07/01 10:11:09;;;;;;;14.50;6.60;;;;;;;14.22;84.53;101482.72;5072874;28;20078;-50
2021/07/01 10:13:37;;;;;;;22.48;9.90;;;;;;;14.22;84.26;101483.53;5055545;28;20047;-49
2021/07/01 10:16:05;;;;;;;19.52;8.15;;;;;;;14.28;84.28;101481.59;5072431;28;20068;-51
2021/07/01 10:18:41;;;;;;;53.33;19.98;;;;;;;14.29;84.06;101483.28;5058332;28;20438;-50
2021/07/01 10:21:15;;;;;;;20.23;7.25;;;;;;;14.32;84.47;101481.91;5072871;28;20048;-49
2021/07/01 10:23:43;;;;;;;19.60;7.63;;;;;;;14.34;84.21;101482.44;5054666;28;20503;-51
2021/07/01 10:26:15;;;;;;;33.17;14.50;;;;;;;14.36;84.09;101482.97;5054925;28;20403;-47
2021/07/01 10:28:57;;;;;;;24.77;9.85;;;;;;;14.38;84.31;101484.34;5054405;28;20040;-51
2021/07/01 10:31:24;;;;;;;23.67;10.95;;;;;;;14.41;84.18;101486.53;5072634;28;20044;-50
2021/07/01 10:33:58;;;;;;;18.35;7.95;;;;;;;14.40;84.31;101487.63;5054454;28;20067;-51
2021/07/01 10:36:27;;;;;;;24.23;8.80;;;;;;;14.46;83.89;101488.44;5072515;28;20041;-51
2021/07/01 10:38:55;;;;;;;24.33;10.07;;;;;;;14.45;83.83;101490.34;4369453;28;10000078;-50
2021/07/01 10:41:33;;;;;;;37.72;8.93;;;;;;;14.45;83.72;101489.53;5070439;28;20070;-52
2021/07/01 10:44:02;;;;;;;43.72;10.55;;;;;;;14.48;83.50;101489.00;5070509;28;20040;-50
2021/07/01 10:46:44;;;;;;;29.60;11.32;;;;;;;14.44;83.59;101488.72;5069892;28;20080;-52
2021/07/01 10:49:16;;;;;;;22.20;7.20;;;;;;;14.43;83.42;101492.56;5069719;28;20044;-50
2021/07/01 10:51:50;;;;;;;20.67;7.53;;;;;;;14.43;83.40;101487.09;5070254;28;20147;-50
2021/07/01 10:54:18;;;;;;;19.05;7.85;;;;;;;14.45;83.54;101492.28;5069998;28;20583;-53
2021/07/01 10:57:10;;;;;;;23.48;8.25;;;;;;;14.44;83.58;101488.72;5070214;28;20136;-48
2021/07/01 10:59:50;;;;;;;29.98;13.68;;;;;;;14.49;83.49;101488.69;5069920;28;20407;-52
2021/07/01 11:02:26;;;;;;;16.05;7.97;;;;;;;14.48;83.36;101489.81;5069843;28;20056;-49
2021/07/01 11:05:02;;;;;;;16.67;8.00;;;;;;;14.51;82.93;101496.66;5069996;28;20040;-49
2021/07/01 11:07:41;;;;;;;19.23;8.40;;;;;;;14.44;82.85;101494.19;5069954;28;20044;-49
2021/07/01 11:10:14;;;;;;;23.92;9.50;;;;;;;14.43;82.51;101502.69;5069610;28;20094;-49
2021/07/01 11:12:47;;;;;;;22.67;9.40;;;;;;;14.35;82.19;101495.84;5069966;28;20137;-50
2021/07/01 11:15:24;;;;;;;17.63;8.45;;;;;;;14.34;82.68;101496.16;5057167;28;20063;-51
2021/07/01 11:17:51;;;;;;;23.17;9.00;;;;;;;14.37;82.88;101506.56;5069668;28;20110;-50
2021/07/01 11:20:22;;;;;;;19.65;9.27;;;;;;;14.39;82.71;101501.63;5051731;28;20052;-49
2021/07/01 11:22:54;;;;;;;28.05;11.07;;;;;;;14.46;82.73;101502.16;5069835;28;20045;-48
2021/07/01 11:25:35;;;;;;;26.85;11.90;;;;;;;14.50;82.46;101503.22;5069601;28;20040;-51
2021/07/01 11:28:28;;;;;;;22.35;8.77;;;;;;;14.53;82.34;101501.84;5069528;28;20052;-49
2021/07/01 11:31:02;;;;;;;20.25;9.65;;;;;;;14.50;82.53;101503.22;5069760;28;20040;-50
2021/07/01 11:33:30;;;;;;;21.25;8.65;;;;;;;14.52;82.04;101506.50;5069027;28;20052;-48
2021/07/01 11:36:15;;;;;;;17.23;7.88;;;;;;;14.52;82.72;101508.44;5069588;28;20380;-47
2021/07/01 11:38:45;;;;;;;19.00;7.65;;;;;;;14.51;82.54;101504.06;5053318;28;20052;-47
2021/07/01 11:41:14;;;;;;;16.63;7.72;;;;;;;14.53;82.63;101502.69;5072039;28;20109;-49
2021/07/01 11:43:43;;;;;;;23.52;9.25;;;;;;;14.56;82.50;101507.63;5071398;28;20415;-49
2021/07/01 11:46:11;;;;;;;16.88;7.20;;;;;;;14.57;82.51;101502.97;5071136;28;20052;-46